createdAt,value
2022-12-22T00:02:12.608Z,29.40
2022-12-22T00:05:16.651Z,40.00
2022-12-22T00:08:21.281Z,17.80
2022-12-22T00:11:29.795Z,27.70
2022-12-22T00:14:34.229Z,40.10
2022-12-22T00:17:43.776Z,92.50
2022-12-22T00:20:47.949Z,84.93
2022-12-22T00:23:52.585Z,84.03
2022-12-22T00:26:59.116Z,67.33
2022-12-22T00:30:04.107Z,126.97
2022-12-22T00:33:08.717Z,181.90
2022-12-22T00:36:12.971Z,182.07
2022-12-22T00:39:17.097Z,94.33
2022-12-22T00:42:23.020Z,241.10
2022-12-22T00:45:28.231Z,159.43
2022-12-22T00:48:40.261Z,163.53
2022-12-22T00:51:45.017Z,68.50
2022-12-22T00:54:49.767Z,86.37
2022-12-22T00:57:55.122Z,30.03
2022-12-22T01:00:58.981Z,96.63
2022-12-22T01:04:03.713Z,62.40
2022-12-22T01:07:07.889Z,148.43
2022-12-22T01:10:12.739Z,28.10
2022-12-22T01:13:18.588Z,109.63
2022-12-22T01:16:23.298Z,84.93
2022-12-22T01:19:27.304Z,144.73
2022-12-22T01:22:34.763Z,101.43
2022-12-22T01:25:38.853Z,101.57
2022-12-22T01:28:44.489Z,95.57
2022-12-22T01:31:51.203Z,84.37
2022-12-22T01:34:57.038Z,35.40
2022-12-22T01:38:01.378Z,24.00
2022-12-22T01:41:05.982Z,30.13
2022-12-22T01:44:11.369Z,24.37
2022-12-22T01:47:51.350Z,25.90
2022-12-22T01:50:55.656Z,24.10
2022-12-22T01:54:00.817Z,25.30
2022-12-22T01:57:06.595Z,25.97
2022-12-22T02:00:12.529Z,22.40
2022-12-22T02:03:16.885Z,23.20
2022-12-22T02:06:32.546Z,23.90
2022-12-22T02:09:50.603Z,25.07
2022-12-22T02:13:00.956Z,57.20
2022-12-22T02:16:10.410Z,25.90
2022-12-22T02:19:21.587Z,24.37
2022-12-22T02:22:36.243Z,33.90
2022-12-22T02:25:49.188Z,26.50
2022-12-22T02:28:55.480Z,25.50
2022-12-22T02:32:00.716Z,36.10
2022-12-22T02:35:04.846Z,19.83
2022-12-22T02:38:29.650Z,59.93
2022-12-22T02:41:42.898Z,24.00
2022-12-22T02:45:04.313Z,20.60
2022-12-22T02:48:17.211Z,20.87
2022-12-22T02:51:25.958Z,19.90
2022-12-22T02:54:32.552Z,32.20
2022-12-22T02:57:37.834Z,20.40
2022-12-22T03:00:43.690Z,21.87
2022-12-22T03:03:48.019Z,18.17
2022-12-22T03:06:52.204Z,59.70
2022-12-22T03:09:57.014Z,57.47
2022-12-22T03:13:01.422Z,15.77
2022-12-22T03:16:06.865Z,17.53
2022-12-22T03:19:11.062Z,17.53
2022-12-22T03:22:15.400Z,20.77
2022-12-22T03:25:19.553Z,18.30
2022-12-22T03:28:08.120Z,21.30
2022-12-22T03:30:58.724Z,15.63
2022-12-22T03:33:45.412Z,17.83
2022-12-22T03:36:32.335Z,18.53
2022-12-22T03:39:19.095Z,19.37
2022-12-22T03:42:23.096Z,22.23
2022-12-22T03:45:28.834Z,21.30
2022-12-22T03:48:16.989Z,22.70
2022-12-22T03:51:03.976Z,18.77
2022-12-22T03:53:50.689Z,18.93
2022-12-22T03:56:38.454Z,19.40
2022-12-22T03:59:25.186Z,20.97
2022-12-22T04:02:12.099Z,17.70
2022-12-22T04:05:00.146Z,18.03
2022-12-22T04:07:47.134Z,26.97
2022-12-22T04:10:51.724Z,20.17
2022-12-22T04:13:38.525Z,16.70
2022-12-22T04:16:25.378Z,19.70
2022-12-22T04:19:12.238Z,18.20
2022-12-22T04:22:01.468Z,18.53
2022-12-22T04:24:48.080Z,17.67
2022-12-22T04:27:35.104Z,18.53
2022-12-22T04:30:23.961Z,18.10
2022-12-22T04:33:11.281Z,20.57
2022-12-22T04:35:57.862Z,15.83
2022-12-22T04:38:46.685Z,22.90
2022-12-22T04:41:33.282Z,15.93
2022-12-22T04:44:19.949Z,16.37
2022-12-22T04:47:06.848Z,17.63
2022-12-22T04:49:55.751Z,16.33
2022-12-22T04:52:42.438Z,17.40
2022-12-22T04:55:30.579Z,17.30
2022-12-22T04:58:17.763Z,17.57
2022-12-22T05:01:12.447Z,14.90
2022-12-22T05:03:59.360Z,17.53
2022-12-22T05:06:46.213Z,20.53
2022-12-22T05:09:33.013Z,15.43
2022-12-22T05:12:38.821Z,17.63
2022-12-22T05:15:28.964Z,15.87
2022-12-22T05:18:15.569Z,16.07
2022-12-22T05:21:04.715Z,19.63
2022-12-22T05:23:52.121Z,27.33
2022-12-22T05:26:39.998Z,19.87
2022-12-22T05:29:27.856Z,17.60
2022-12-22T05:32:14.699Z,19.03
2022-12-22T05:35:01.685Z,22.70
2022-12-22T05:37:48.434Z,17.93
2022-12-22T05:40:35.307Z,17.63
2022-12-22T05:43:22.207Z,15.73
2022-12-22T05:46:12.639Z,18.20
2022-12-22T05:48:59.643Z,19.57
2022-12-22T05:51:46.667Z,22.37
2022-12-22T05:54:33.149Z,20.87
2022-12-22T05:57:20.093Z,21.47
2022-12-22T06:00:09.110Z,21.70
2022-12-22T06:03:00.528Z,26.13
2022-12-22T06:05:50.703Z,19.23
2022-12-22T06:08:37.285Z,22.27
2022-12-22T06:11:24.146Z,25.77
2022-12-22T06:14:11.044Z,21.53
2022-12-22T06:16:57.910Z,27.00
2022-12-22T06:19:46.246Z,31.37
2022-12-22T06:22:34.404Z,38.47
2022-12-22T06:25:21.244Z,32.50
2022-12-22T06:28:08.192Z,27.90
2022-12-22T06:30:55.258Z,33.67
2022-12-22T06:33:42.183Z,30.67
2022-12-22T06:36:30.394Z,35.90
2022-12-22T06:39:19.930Z,44.57
2022-12-22T06:42:24.454Z,26.23
2022-12-22T06:45:11.675Z,28.87
2022-12-22T06:47:58.535Z,30.43
2022-12-22T06:50:45.626Z,27.77
2022-12-22T06:53:33.601Z,28.00
2022-12-22T06:56:20.491Z,29.60
2022-12-22T06:59:07.390Z,23.80
2022-12-22T07:01:54.261Z,22.80
2022-12-22T07:04:40.954Z,28.30
2022-12-22T07:07:27.969Z,31.23
2022-12-22T07:10:16.071Z,27.07
2022-12-22T07:13:19.429Z,27.43
2022-12-22T07:16:08.781Z,26.83
2022-12-22T07:18:55.509Z,25.00
2022-12-22T07:21:42.913Z,28.03
2022-12-22T07:24:29.622Z,28.07
2022-12-22T07:27:18.309Z,28.40
2022-12-22T07:30:05.539Z,29.10
2022-12-22T07:32:52.023Z,31.30
2022-12-22T07:35:38.749Z,25.90
2022-12-22T07:38:25.915Z,27.63
2022-12-22T07:41:31.646Z,27.80
2022-12-22T07:44:21.723Z,30.33
2022-12-22T07:47:08.153Z,30.03
2022-12-22T07:50:12.361Z,26.10
2022-12-22T07:53:01.923Z,27.03
2022-12-22T07:55:48.886Z,24.07
2022-12-22T07:58:35.691Z,29.27
2022-12-22T08:01:24.253Z,24.57
2022-12-22T08:04:13.313Z,30.03
2022-12-22T08:07:00.147Z,30.20
2022-12-22T08:09:46.855Z,24.93
2022-12-22T08:12:33.740Z,26.90
2022-12-22T08:15:20.812Z,24.07
2022-12-22T08:18:08.963Z,29.23
2022-12-22T08:20:55.589Z,28.57
2022-12-22T08:23:42.875Z,25.57
2022-12-22T08:26:33.647Z,25.80
2022-12-22T08:29:25.069Z,27.17
2022-12-22T08:32:12.515Z,24.17
2022-12-22T08:35:00.768Z,22.10
2022-12-22T08:37:49.059Z,25.53
2022-12-22T08:40:36.044Z,29.60
2022-12-22T08:43:22.988Z,25.43
2022-12-22T08:46:09.679Z,21.63
2022-12-22T08:48:56.541Z,26.23
2022-12-22T08:51:44.895Z,21.13
2022-12-22T08:54:31.762Z,26.20
2022-12-22T08:57:18.670Z,22.13
2022-12-22T09:00:06.472Z,26.37
2022-12-22T09:02:53.600Z,28.47
2022-12-22T09:05:41.681Z,22.67
2022-12-22T09:08:30.001Z,22.47
2022-12-22T09:11:17.131Z,21.70
2022-12-22T09:14:04.857Z,25.27
2022-12-22T09:16:51.669Z,21.27
2022-12-22T09:19:38.591Z,24.77
2022-12-22T09:22:28.550Z,25.93
2022-12-22T09:25:18.338Z,22.83
2022-12-22T09:28:08.414Z,17.60
2022-12-22T09:30:55.870Z,20.33
2022-12-22T09:33:42.536Z,17.77
2022-12-22T09:36:31.899Z,22.43
2022-12-22T09:39:22.281Z,19.77
2022-12-22T09:42:16.896Z,19.07
2022-12-22T09:45:03.526Z,19.10
2022-12-22T09:47:53.955Z,20.57
2022-12-22T09:50:42.583Z,19.70
2022-12-22T09:53:29.141Z,18.50
2022-12-22T09:56:18.353Z,15.33
2022-12-22T09:59:11.553Z,18.93
2022-12-22T10:02:11.762Z,20.43
2022-12-22T10:05:13.964Z,22.50
2022-12-22T10:08:03.078Z,20.23
2022-12-22T10:10:54.733Z,19.27
2022-12-22T10:13:41.942Z,18.30
2022-12-22T10:16:30.584Z,18.03
2022-12-22T10:19:17.114Z,14.73
2022-12-22T10:22:23.003Z,16.17
2022-12-22T10:25:35.802Z,19.27
2022-12-22T10:28:38.337Z,20.40
2022-12-22T10:31:27.208Z,17.23
2022-12-22T10:34:17.476Z,14.20
2022-12-22T10:37:06.244Z,14.23
2022-12-22T10:39:52.784Z,16.13
2022-12-22T10:42:39.789Z,22.20
2022-12-22T10:45:28.802Z,17.40
2022-12-22T10:48:15.811Z,17.20
2022-12-22T10:51:08.115Z,18.70
2022-12-22T10:53:57.560Z,17.87
2022-12-22T10:56:44.002Z,15.73
2022-12-22T10:59:31.945Z,20.00
2022-12-22T11:02:29.687Z,16.53
2022-12-22T11:05:16.907Z,16.83
2022-12-22T11:08:18.059Z,13.93
2022-12-22T11:11:11.536Z,17.63
2022-12-22T11:14:09.473Z,17.50
2022-12-22T11:17:04.262Z,22.13
2022-12-22T11:20:04.637Z,16.70
2022-12-22T11:22:59.997Z,15.80
2022-12-22T11:25:58.825Z,20.57
2022-12-22T11:29:15.369Z,18.87
2022-12-22T11:32:21.674Z,17.50
2022-12-22T11:35:18.137Z,23.57
2022-12-22T11:38:13.574Z,20.17
2022-12-22T11:41:09.203Z,16.73
2022-12-22T11:44:12.025Z,16.50
2022-12-22T11:47:05.244Z,18.47
2022-12-22T11:50:59.767Z,18.10
2022-12-22T11:53:53.325Z,20.63
2022-12-22T11:56:43.925Z,21.23
2022-12-22T11:59:43.444Z,19.07
2022-12-22T12:03:05.448Z,18.33
2022-12-22T12:06:18.770Z,17.87
2022-12-22T12:09:27.418Z,25.60
2022-12-22T12:12:22.939Z,18.80
2022-12-22T12:15:24.394Z,18.37
2022-12-22T12:18:36.589Z,17.40
2022-12-22T12:21:28.906Z,17.40
2022-12-22T12:24:29.738Z,16.33
2022-12-22T12:27:33.761Z,18.50
2022-12-22T12:30:37.922Z,29.03
2022-12-22T12:33:37.579Z,21.63
2022-12-22T12:36:31.260Z,19.93
2022-12-22T12:39:26.397Z,28.27
2022-12-22T12:42:27.260Z,18.27
2022-12-22T12:45:35.247Z,32.27
2022-12-22T12:48:46.339Z,19.23
2022-12-22T12:51:50.479Z,15.40
2022-12-22T12:54:39.749Z,23.57
2022-12-22T12:57:30.037Z,113.40
2022-12-22T13:00:49.727Z,59.93
2022-12-22T13:06:52.141Z,146.83
2022-12-22T13:10:08.046Z,40.33
2022-12-22T13:12:58.225Z,101.03
2022-12-22T13:15:46.087Z,221.50
2022-12-22T13:18:49.720Z,247.27
2022-12-22T13:21:53.828Z,288.17
2022-12-22T13:24:49.202Z,56.53
2022-12-22T13:27:37.867Z,29.67
2022-12-22T13:30:27.929Z,14.97
2022-12-22T13:33:17.755Z,20.83
2022-12-22T13:36:06.355Z,13.47
2022-12-22T13:39:01.861Z,153.77
2022-12-22T13:41:50.963Z,42.60
2022-12-22T13:44:39.938Z,57.13
2022-12-22T13:47:28.787Z,19.50
2022-12-22T13:50:22.015Z,30.77
2022-12-22T13:53:13.058Z,46.60
2022-12-22T13:56:14.125Z,52.33
2022-12-22T13:59:02.790Z,21.40
2022-12-22T14:01:51.327Z,11.50
2022-12-22T14:04:40.923Z,18.23
2022-12-22T14:07:27.497Z,44.23
2022-12-22T14:10:15.276Z,187.47
2022-12-22T14:13:07.056Z,143.37
2022-12-22T14:16:01.997Z,103.37
2022-12-22T14:18:48.893Z,36.80
2022-12-22T14:21:37.247Z,26.50
2022-12-22T14:24:28.665Z,98.33
2022-12-22T14:27:24.910Z,27.50
2022-12-22T14:30:18.354Z,25.90
2022-12-22T14:33:27.540Z,16.53
2022-12-22T14:36:18.760Z,22.40
2022-12-22T14:39:11.278Z,17.97
2022-12-22T14:41:59.374Z,20.20
2022-12-22T14:44:47.936Z,19.43
2022-12-22T14:47:38.557Z,15.00
2022-12-22T14:50:27.243Z,15.03
2022-12-22T14:53:17.009Z,13.27
2022-12-22T14:56:05.171Z,15.93
2022-12-22T14:58:51.964Z,12.13
2022-12-22T15:01:38.986Z,12.23
2022-12-22T15:04:25.799Z,14.67
2022-12-22T15:07:54.248Z,11.60
2022-12-22T15:10:28.291Z,11.53
2022-12-22T15:13:22.007Z,10.43
2022-12-22T15:16:14.077Z,9.57
2022-12-22T15:19:01.348Z,8.27
2022-12-22T15:21:48.169Z,9.07
2022-12-22T15:24:34.974Z,8.37
2022-12-22T15:27:21.925Z,12.87
2022-12-22T15:30:11.527Z,8.33
2022-12-22T15:32:58.393Z,8.33
2022-12-22T15:35:46.293Z,7.83
2022-12-22T15:38:38.502Z,6.30
2022-12-22T15:41:25.491Z,11.37
2022-12-22T15:44:12.706Z,9.53
2022-12-22T15:47:00.662Z,9.83
2022-12-22T15:49:47.240Z,7.60
2022-12-22T15:52:34.182Z,9.00
2022-12-22T15:55:21.715Z,6.70
2022-12-22T15:58:13.060Z,8.20
2022-12-22T16:01:00.033Z,6.50
2022-12-22T16:03:48.240Z,8.07
2022-12-22T16:06:34.969Z,11.30
2022-12-22T16:09:24.487Z,8.53
2022-12-22T16:12:14.685Z,8.67
2022-12-22T16:15:02.715Z,10.40
2022-12-22T16:17:52.157Z,12.27
2022-12-22T16:20:43.895Z,11.17
2022-12-22T16:23:30.924Z,8.37
2022-12-22T16:26:20.522Z,9.00
2022-12-22T16:29:09.653Z,7.20
2022-12-22T16:32:17.578Z,10.57
2022-12-22T16:35:16.618Z,8.70
2022-12-22T16:38:05.133Z,9.53
2022-12-22T16:40:53.928Z,9.53
2022-12-22T16:43:50.535Z,11.40
2022-12-22T16:46:39.702Z,11.63
2022-12-22T16:49:27.205Z,13.07
2022-12-22T16:52:21.782Z,10.33
2022-12-22T16:55:16.462Z,10.93
2022-12-22T16:58:12.919Z,10.47
2022-12-22T17:01:01.772Z,12.03
2022-12-22T17:03:50.183Z,11.67
2022-12-22T17:06:38.642Z,11.30
2022-12-22T17:09:29.971Z,15.17
2022-12-22T17:12:22.071Z,9.23
2022-12-22T17:15:15.130Z,11.87
2022-12-22T17:18:03.779Z,16.83
2022-12-22T17:20:53.550Z,10.40
2022-12-22T17:23:44.115Z,13.97
2022-12-22T17:26:34.519Z,11.23
2022-12-22T17:29:25.769Z,15.67
2022-12-22T17:32:14.638Z,13.57
2022-12-22T17:35:01.581Z,15.63
2022-12-22T17:37:49.212Z,14.80
2022-12-22T17:40:36.104Z,17.50
2022-12-22T17:43:23.054Z,13.67
2022-12-22T17:46:16.135Z,15.23
2022-12-22T17:49:03.334Z,17.57
2022-12-22T17:51:50.899Z,20.23
2022-12-22T17:54:37.834Z,20.43
2022-12-22T17:57:27.131Z,17.30
2022-12-22T18:00:19.069Z,17.13
2022-12-22T18:03:18.402Z,20.63
2022-12-22T18:06:14.357Z,18.37
2022-12-22T18:09:05.406Z,19.60
2022-12-22T18:11:52.200Z,22.37
2022-12-22T18:14:39.157Z,22.70
2022-12-22T18:17:34.912Z,21.80
2022-12-22T18:20:26.333Z,24.47
2022-12-22T18:23:17.786Z,21.73
2022-12-22T18:26:05.433Z,24.13
2022-12-22T18:28:52.607Z,20.83
2022-12-22T18:31:39.486Z,21.27
2022-12-22T18:34:25.948Z,22.03
2022-12-22T18:37:17.215Z,22.43
2022-12-22T18:40:03.947Z,23.73
2022-12-22T18:42:51.775Z,22.77
2022-12-22T18:45:38.528Z,25.47
2022-12-22T18:48:25.235Z,26.63
2022-12-22T18:51:19.589Z,23.87
2022-12-22T18:54:21.951Z,24.60
2022-12-22T18:57:14.442Z,28.13
2022-12-22T19:00:01.482Z,23.73
2022-12-22T19:02:50.021Z,24.53
2022-12-22T19:05:38.003Z,27.53
2022-12-22T19:08:26.888Z,30.43
2022-12-22T19:11:17.425Z,30.80
2022-12-22T19:14:04.160Z,29.83
2022-12-22T19:16:51.378Z,24.40
2022-12-22T19:19:38.224Z,22.10
2022-12-22T19:22:25.007Z,26.63
2022-12-22T19:25:15.227Z,27.10
2022-12-22T19:28:08.421Z,32.90
2022-12-22T19:30:57.220Z,32.17
2022-12-22T19:33:45.007Z,25.27
2022-12-22T19:36:35.825Z,35.53
2022-12-22T19:39:25.026Z,24.07
2022-12-22T19:42:15.012Z,23.77
2022-12-22T19:45:10.214Z,27.10
2022-12-22T19:47:58.922Z,28.20
2022-12-22T19:50:46.035Z,22.77
2022-12-22T19:53:32.702Z,28.97
2022-12-22T19:56:24.335Z,24.40
2022-12-22T19:59:26.287Z,23.13
2022-12-22T20:02:27.557Z,20.10
2022-12-22T20:05:30.757Z,30.50
2022-12-22T20:08:17.671Z,22.63
2022-12-22T20:11:07.551Z,21.10
2022-12-22T20:13:54.980Z,22.70
2022-12-22T20:16:42.898Z,23.50
2022-12-22T20:19:31.355Z,25.03
2022-12-22T20:22:19.626Z,20.83
2022-12-22T20:25:08.211Z,29.10
2022-12-22T20:27:57.300Z,24.53
2022-12-22T20:30:44.297Z,21.50
2022-12-22T20:33:31.606Z,22.40
2022-12-22T20:36:23.086Z,30.43
2022-12-22T20:39:13.741Z,25.77
2022-12-22T20:42:00.416Z,23.73
2022-12-22T20:45:03.967Z,23.70
2022-12-22T20:47:52.758Z,32.00
2022-12-22T20:50:39.301Z,24.23
2022-12-22T20:53:28.087Z,20.03
2022-12-22T20:56:22.682Z,63.30
2022-12-22T20:59:14.834Z,19.20
2022-12-22T21:02:02.059Z,23.13
2022-12-22T21:04:49.130Z,18.60
2022-12-22T21:07:35.661Z,23.90
2022-12-22T21:10:26.454Z,27.10
2022-12-22T21:13:14.063Z,19.73
2022-12-22T21:16:00.523Z,23.70
2022-12-22T21:18:47.755Z,28.57
2022-12-22T21:21:34.881Z,28.87
2022-12-22T21:24:21.741Z,22.57
2022-12-22T21:27:18.344Z,28.17
2022-12-22T21:30:05.458Z,27.23
2022-12-22T21:32:53.251Z,25.40
2022-12-22T21:35:41.715Z,26.70
2022-12-22T21:38:32.927Z,23.60
2022-12-22T21:41:19.626Z,30.73
2022-12-22T21:44:08.658Z,28.20
2022-12-22T21:46:56.025Z,36.90
2022-12-22T21:49:43.703Z,24.27
2022-12-22T21:52:31.145Z,28.70
2022-12-22T21:55:20.176Z,27.17
2022-12-22T21:58:09.464Z,27.47
2022-12-22T22:00:58.233Z,28.13
2022-12-22T22:03:45.749Z,30.23
2022-12-22T22:06:33.108Z,35.07
2022-12-22T22:09:22.855Z,29.33
2022-12-22T22:12:29.358Z,28.60
2022-12-22T22:15:16.990Z,28.47
2022-12-22T22:18:07.460Z,35.47
2022-12-22T22:20:56.075Z,32.23
2022-12-22T22:23:43.951Z,27.47
2022-12-22T22:26:31.461Z,26.27
2022-12-22T22:29:18.831Z,31.13
2022-12-22T22:32:07.219Z,34.17
2022-12-22T22:34:56.192Z,34.57
2022-12-22T22:37:46.108Z,30.27
2022-12-22T22:40:33.604Z,26.03
2022-12-22T22:43:21.114Z,27.70
2022-12-22T22:46:07.980Z,39.40
2022-12-22T22:48:55.855Z,36.97
2022-12-22T22:51:44.298Z,27.80
2022-12-22T22:54:31.322Z,32.63
2022-12-22T22:57:18.215Z,31.67
2022-12-22T23:00:07.342Z,43.57
2022-12-22T23:02:54.178Z,26.07
2022-12-22T23:05:41.189Z,30.17
2022-12-22T23:08:30.665Z,34.50
2022-12-22T23:11:18.538Z,32.10
2022-12-22T23:14:05.849Z,32.50
2022-12-22T23:16:53.123Z,35.37
2022-12-22T23:19:40.303Z,33.80
2022-12-22T23:22:27.282Z,36.70
2022-12-22T23:25:15.543Z,31.40
2022-12-22T23:28:02.509Z,34.73
2022-12-22T23:30:51.387Z,30.57
2022-12-22T23:33:38.938Z,40.00
2022-12-22T23:36:26.197Z,36.67
2022-12-22T23:39:13.277Z,36.07
2022-12-22T23:42:01.161Z,31.83
2022-12-22T23:44:49.300Z,25.00
2022-12-22T23:47:35.853Z,32.97
2022-12-22T23:50:22.753Z,37.50
2022-12-22T23:53:09.319Z,32.53
2022-12-22T23:55:56.670Z,34.53
2022-12-22T23:58:49.471Z,39.70
